sensor_id;sensor_type;location;lat;lon;timestamp;pressure;altitude;pressure_sealevel;temperature;humidity
10135;BME280;5107;48.850;8.924;2022-11-15T00:01:31;96602.16;;;9.64;78.88
10135;BME280;5107;48.850;8.924;2022-11-15T00:04:16;96600.06;;;9.51;79.89
10135;BME280;5107;48.850;8.924;2022-11-15T00:07:02;96599.72;;;9.54;79.13
10135;BME280;5107;48.850;8.924;2022-11-15T00:09:47;96597.75;;;9.56;79.16
10135;BME280;5107;48.850;8.924;2022-11-15T00:12:34;96598.56;;;9.65;78.71
10135;BME280;5107;48.850;8.924;2022-11-15T00:15:20;96610.06;;;9.64;78.48
10135;BME280;5107;48.850;8.924;2022-11-15T00:18:06;96608.91;;;9.58;78.83
10135;BME280;5107;48.850;8.924;2022-11-15T00:20:52;96608.75;;;9.60;78.57
10135;BME280;5107;48.850;8.924;2022-11-15T00:23:38;96596.78;;;9.49;79.48
10135;BME280;5107;48.850;8.924;2022-11-15T00:26:23;96596.94;;;9.39;79.71
10135;BME280;5107;48.850;8.924;2022-11-15T00:29:10;96600.91;;;9.27;80.44
10135;BME280;5107;48.850;8.924;2022-11-15T00:31:55;96588.59;;;9.20;80.76
10135;BME280;5107;48.850;8.924;2022-11-15T00:34:41;96593.50;;;9.14;80.90
10135;BME280;5107;48.850;8.924;2022-11-15T00:37:26;96592.69;;;9.06;81.23
10135;BME280;5107;48.850;8.924;2022-11-15T00:40:12;96601.38;;;8.98;81.71
10135;BME280;5107;48.850;8.924;2022-11-15T00:42:58;96594.97;;;8.93;81.59
10135;BME280;5107;48.850;8.924;2022-11-15T00:45:45;96593.81;;;8.87;81.80
10135;BME280;5107;48.850;8.924;2022-11-15T00:48:31;96599.72;;;8.89;81.66
10135;BME280;5107;48.850;8.924;2022-11-15T00:51:16;96592.34;;;8.93;81.85
10135;BME280;5107;48.850;8.924;2022-11-15T00:54:02;96584.13;;;8.96;81.39
10135;BME280;5107;48.850;8.924;2022-11-15T00:56:47;96584.47;;;8.93;81.61
10135;BME280;5107;48.850;8.924;2022-11-15T00:59:33;96580.22;;;8.92;81.42
10135;BME280;5107;48.850;8.924;2022-11-15T01:02:19;96579.56;;;8.90;81.45
10135;BME280;5107;48.850;8.924;2022-11-15T01:05:06;96574.66;;;8.87;81.48
10135;BME280;5107;48.850;8.924;2022-11-15T01:07:52;96577.06;;;8.80;82.18
10135;BME280;5107;48.850;8.924;2022-11-15T01:10:37;96575.09;;;8.74;82.20
10135;BME280;5107;48.850;8.924;2022-11-15T01:13:23;96570.16;;;8.71;82.30
10135;BME280;5107;48.850;8.924;2022-11-15T01:16:12;96568.56;;;8.78;81.87
10135;BME280;5107;48.850;8.924;2022-11-15T01:18:59;96567.09;;;8.84;81.48
10135;BME280;5107;48.850;8.924;2022-11-15T01:21:44;96571.66;;;8.82;81.64
10135;BME280;5107;48.850;8.924;2022-11-15T01:24:29;96565.13;;;8.78;81.60
10135;BME280;5107;48.850;8.924;2022-11-15T01:27:15;96563.94;;;8.72;82.03
10135;BME280;5107;48.850;8.924;2022-11-15T01:30:01;96555.91;;;8.65;82.27
10135;BME280;5107;48.850;8.924;2022-11-15T01:32:48;96555.09;;;8.65;82.27
10135;BME280;5107;48.850;8.924;2022-11-15T01:35:38;96552.00;;;8.61;82.44
10135;BME280;5107;48.850;8.924;2022-11-15T01:38:25;96555.56;;;8.52;83.30
10135;BME280;5107;48.850;8.924;2022-11-15T01:41:16;96550.13;;;8.46;83.39
10135;BME280;5107;48.850;8.924;2022-11-15T01:44:44;96547.47;;;8.37;84.08
10135;BME280;5107;48.850;8.924;2022-11-15T01:47:37;96540.94;;;8.33;84.40
10135;BME280;5107;48.850;8.924;2022-11-15T01:50:28;96547.16;;;8.32;84.64
10135;BME280;5107;48.850;8.924;2022-11-15T01:53:16;96546.59;;;8.29;84.84
10135;BME280;5107;48.850;8.924;2022-11-15T01:56:06;96545.50;;;8.31;84.97
10135;BME280;5107;48.850;8.924;2022-11-15T01:58:56;96541.41;;;8.37;84.79
10135;BME280;5107;48.850;8.924;2022-11-15T02:01:43;96532.28;;;8.41;84.67
10135;BME280;5107;48.850;8.924;2022-11-15T02:04:32;96526.72;;;8.44;84.27
10135;BME280;5107;48.850;8.924;2022-11-15T02:07:21;96528.84;;;8.49;83.84
10135;BME280;5107;48.850;8.924;2022-11-15T02:10:11;96528.84;;;8.49;83.89
10135;BME280;5107;48.850;8.924;2022-11-15T02:12:57;96536.84;;;8.47;84.18
10135;BME280;5107;48.850;8.924;2022-11-15T02:15:55;96532.94;;;8.43;84.43
10135;BME280;5107;48.850;8.924;2022-11-15T02:18:49;96538.34;;;8.42;84.43
10135;BME280;5107;48.850;8.924;2022-11-15T02:21:43;96521.63;;;8.51;84.03
10135;BME280;5107;48.850;8.924;2022-11-15T02:24:59;96512.44;;;8.55;83.70
10135;BME280;5107;48.850;8.924;2022-11-15T02:31:21;96502.16;;;8.53;83.73
10135;BME280;5107;48.850;8.924;2022-11-15T02:34:21;96504.09;;;8.51;84.09
10135;BME280;5107;48.850;8.924;2022-11-15T02:37:19;96493.63;;;8.59;83.90
10135;BME280;5107;48.850;8.924;2022-11-15T02:40:16;96491.16;;;8.74;83.17
10135;BME280;5107;48.850;8.924;2022-11-15T02:43:08;96494.63;;;8.74;83.33
10135;BME280;5107;48.850;8.924;2022-11-15T02:46:18;96496.56;;;8.72;83.51
10135;BME280;5107;48.850;8.924;2022-11-15T02:49:05;96486.75;;;8.74;83.46
10135;BME280;5107;48.850;8.924;2022-11-15T02:51:51;96482.63;;;8.72;83.44
10135;BME280;5107;48.850;8.924;2022-11-15T02:54:37;96484.44;;;8.71;83.28
10135;BME280;5107;48.850;8.924;2022-11-15T02:57:36;96481.19;;;8.78;82.67
10135;BME280;5107;48.850;8.924;2022-11-15T03:00:23;96480.19;;;8.87;81.98
10135;BME280;5107;48.850;8.924;2022-11-15T03:03:49;96468.19;;;9.00;81.37
10135;BME280;5107;48.850;8.924;2022-11-15T03:06:45;96469.34;;;9.06;80.65
10135;BME280;5107;48.850;8.924;2022-11-15T03:09:37;96462.78;;;9.02;81.15
10135;BME280;5107;48.850;8.924;2022-11-15T03:12:32;96461.16;;;9.01;81.09
10135;BME280;5107;48.850;8.924;2022-11-15T03:15:23;96459.84;;;8.97;81.34
10135;BME280;5107;48.850;8.924;2022-11-15T03:18:21;96458.53;;;8.93;81.65
10135;BME280;5107;48.850;8.924;2022-11-15T03:21:09;96464.44;;;8.95;81.48
10135;BME280;5107;48.850;8.924;2022-11-15T03:23:58;96464.25;;;8.96;81.36
10135;BME280;5107;48.850;8.924;2022-11-15T03:26:48;96459.66;;;8.98;80.91
10135;BME280;5107;48.850;8.924;2022-11-15T03:29:39;96455.22;;;9.07;80.25
10135;BME280;5107;48.850;8.924;2022-11-15T03:32:31;96452.13;;;9.11;79.85
10135;BME280;5107;48.850;8.924;2022-11-15T03:35:23;96452.28;;;9.18;79.73
10135;BME280;5107;48.850;8.924;2022-11-15T03:38:15;96451.44;;;9.26;78.90
10135;BME280;5107;48.850;8.924;2022-11-15T03:41:06;96445.34;;;9.25;78.77
10135;BME280;5107;48.850;8.924;2022-11-15T03:43:59;96444.22;;;9.20;79.39
10135;BME280;5107;48.850;8.924;2022-11-15T03:46:56;96444.22;;;9.20;79.33
10135;BME280;5107;48.850;8.924;2022-11-15T03:49:49;96443.41;;;9.19;79.47
10135;BME280;5107;48.850;8.924;2022-11-15T03:52:38;96438.16;;;9.19;79.27
10135;BME280;5107;48.850;8.924;2022-11-15T03:55:24;96438.47;;;9.16;79.72
10135;BME280;5107;48.850;8.924;2022-11-15T03:58:10;96439.63;;;9.13;79.70
10135;BME280;5107;48.850;8.924;2022-11-15T04:00:56;96445.56;;;9.07;80.31
10135;BME280;5107;48.850;8.924;2022-11-15T04:03:41;96441.28;;;9.06;80.12
10135;BME280;5107;48.850;8.924;2022-11-15T04:06:26;96442.44;;;9.12;79.45
10135;BME280;5107;48.850;8.924;2022-11-15T04:09:13;96446.69;;;9.13;79.49
10135;BME280;5107;48.850;8.924;2022-11-15T04:11:58;96447.34;;;9.15;79.33
10135;BME280;5107;48.850;8.924;2022-11-15T04:14:44;96448.97;;;9.16;79.12
10135;BME280;5107;48.850;8.924;2022-11-15T04:17:51;96444.06;;;9.13;79.79
10135;BME280;5107;48.850;8.924;2022-11-15T04:20:37;96435.19;;;9.14;79.47
10135;BME280;5107;48.850;8.924;2022-11-15T04:23:40;96426.19;;;9.17;78.77
10135;BME280;5107;48.850;8.924;2022-11-15T04:26:47;96435.34;;;9.21;78.55
10135;BME280;5107;48.850;8.924;2022-11-15T04:29:32;96426.00;;;9.18;78.77
10135;BME280;5107;48.850;8.924;2022-11-15T04:32:21;96428.47;;;9.20;78.41
10135;BME280;5107;48.850;8.924;2022-11-15T04:35:07;96425.84;;;9.20;78.63
10135;BME280;5107;48.850;8.924;2022-11-15T04:37:53;96425.53;;;9.14;79.03
10135;BME280;5107;48.850;8.924;2022-11-15T04:40:39;96420.63;;;9.11;78.62
10135;BME280;5107;48.850;8.924;2022-11-15T04:43:26;96417.81;;;9.05;79.10
10135;BME280;5107;48.850;8.924;2022-11-15T04:46:12;96419.34;;;8.91;79.92
10135;BME280;5107;48.850;8.924;2022-11-15T04:48:57;96417.06;;;8.80;80.35
10135;BME280;5107;48.850;8.924;2022-11-15T04:51:43;96422.00;;;8.75;80.75
10135;BME280;5107;48.850;8.924;2022-11-15T04:54:29;96416.06;;;8.81;80.17
10135;BME280;5107;48.850;8.924;2022-11-15T04:57:15;96415.25;;;8.81;80.22
10135;BME280;5107;48.850;8.924;2022-11-15T05:00:04;96412.31;;;8.84;80.23
10135;BME280;5107;48.850;8.924;2022-11-15T05:02:51;96408.53;;;8.86;80.03
10135;BME280;5107;48.850;8.924;2022-11-15T05:05:54;96402.47;;;8.94;79.48
10135;BME280;5107;48.850;8.924;2022-11-15T05:08:39;96398.50;;;8.98;79.25
10135;BME280;5107;48.850;8.924;2022-11-15T05:11:25;96396.53;;;9.00;79.62
10135;BME280;5107;48.850;8.924;2022-11-15T05:14:11;96401.78;;;9.00;79.55
10135;BME280;5107;48.850;8.924;2022-11-15T05:16:58;96402.09;;;8.97;80.07
10135;BME280;5107;48.850;8.924;2022-11-15T05:19:44;96391.97;;;8.94;80.29
10135;BME280;5107;48.850;8.924;2022-11-15T05:22:29;96390.16;;;8.94;80.34
10135;BME280;5107;48.850;8.924;2022-11-15T05:25:15;96394.75;;;8.92;80.66
10135;BME280;5107;48.850;8.924;2022-11-15T05:28:01;96396.25;;;8.87;81.07
10135;BME280;5107;48.850;8.924;2022-11-15T05:30:46;96387.56;;;8.86;80.69
10135;BME280;5107;48.850;8.924;2022-11-15T05:33:34;96376.25;;;8.86;80.82
10135;BME280;5107;48.850;8.924;2022-11-15T05:36:28;96378.34;;;8.90;80.56
10135;BME280;5107;48.850;8.924;2022-11-15T05:39:14;96372.44;;;8.88;80.77
10135;BME280;5107;48.850;8.924;2022-11-15T05:42:05;96361.94;;;8.88;80.70
10135;BME280;5107;48.850;8.924;2022-11-15T05:44:51;96367.69;;;8.92;80.61
10135;BME280;5107;48.850;8.924;2022-11-15T05:47:38;96382.47;;;8.85;81.33
10135;BME280;5107;48.850;8.924;2022-11-15T05:50:26;96374.09;;;8.81;81.77
10135;BME280;5107;48.850;8.924;2022-11-15T05:53:16;96380.16;;;8.90;81.25
10135;BME280;5107;48.850;8.924;2022-11-15T05:56:04;96368.81;;;8.97;80.94
10135;BME280;5107;48.850;8.924;2022-11-15T05:58:52;96368.50;;;9.00;80.99
10135;BME280;5107;48.850;8.924;2022-11-15T06:01:39;96373.06;;;9.06;81.15
10135;BME280;5107;48.850;8.924;2022-11-15T06:04:25;96362.88;;;9.11;80.91
10135;BME280;5107;48.850;8.924;2022-11-15T06:07:12;96368.59;;;9.15;80.47
10135;BME280;5107;48.850;8.924;2022-11-15T06:09:57;96371.38;;;9.13;81.33
10135;BME280;5107;48.850;8.924;2022-11-15T06:12:42;96376.84;;;9.12;81.02
10135;BME280;5107;48.850;8.924;2022-11-15T06:15:28;96375.69;;;9.06;81.39
10135;BME280;5107;48.850;8.924;2022-11-15T06:18:13;96375.22;;;9.03;81.82
10135;BME280;5107;48.850;8.924;2022-11-15T06:20:59;96384.06;;;9.02;82.20
10135;BME280;5107;48.850;8.924;2022-11-15T06:23:47;96385.34;;;9.06;82.14
10135;BME280;5107;48.850;8.924;2022-11-15T06:26:32;96384.50;;;9.13;81.24
10135;BME280;5107;48.850;8.924;2022-11-15T06:29:18;96376.44;;;9.23;81.15
10135;BME280;5107;48.850;8.924;2022-11-15T06:32:04;96380.22;;;9.29;81.27
10135;BME280;5107;48.850;8.924;2022-11-15T06:34:49;96382.47;;;9.32;80.88
10135;BME280;5107;48.850;8.924;2022-11-15T06:37:35;96381.63;;;9.39;80.42
10135;BME280;5107;48.850;8.924;2022-11-15T06:40:22;96381.97;;;9.44;80.23
10135;BME280;5107;48.850;8.924;2022-11-15T06:43:08;96384.38;;;9.46;80.35
10135;BME280;5107;48.850;8.924;2022-11-15T06:45:53;96388.44;;;9.57;79.75
10135;BME280;5107;48.850;8.924;2022-11-15T06:48:39;96386.78;;;9.64;79.57
10135;BME280;5107;48.850;8.924;2022-11-15T06:51:24;96391.03;;;9.65;79.69
10135;BME280;5107;48.850;8.924;2022-11-15T06:54:09;96397.44;;;9.70;79.79
10135;BME280;5107;48.850;8.924;2022-11-15T06:56:56;96399.19;;;9.78;79.26
10135;BME280;5107;48.850;8.924;2022-11-15T06:59:42;96391.28;;;9.86;78.69
10135;BME280;5107;48.850;8.924;2022-11-15T07:02:27;96398.16;;;9.87;79.12
10135;BME280;5107;48.850;8.924;2022-11-15T07:05:14;96400.34;;;9.75;79.34
10135;BME280;5107;48.850;8.924;2022-11-15T07:07:59;96400.84;;;9.71;79.42
10135;BME280;5107;48.850;8.924;2022-11-15T07:10:45;96401.16;;;9.76;79.27
10135;BME280;5107;48.850;8.924;2022-11-15T07:13:33;96400.00;;;9.78;79.02
10135;BME280;5107;48.850;8.924;2022-11-15T07:16:20;96396.19;;;9.81;79.23
10135;BME280;5107;48.850;8.924;2022-11-15T07:19:05;96404.22;;;9.87;79.08
10135;BME280;5107;48.850;8.924;2022-11-15T07:21:51;96406.84;;;9.87;78.77
10135;BME280;5107;48.850;8.924;2022-11-15T07:24:36;96398.88;;;10.04;78.51
10135;BME280;5107;48.850;8.924;2022-11-15T07:27:22;96401.44;;;10.20;77.96
10135;BME280;5107;48.850;8.924;2022-11-15T07:30:11;96401.00;;;10.31;77.84
10135;BME280;5107;48.850;8.924;2022-11-15T07:32:58;96396.94;;;10.29;77.67
10135;BME280;5107;48.850;8.924;2022-11-15T07:35:44;96401.53;;;10.49;77.05
10135;BME280;5107;48.850;8.924;2022-11-15T07:38:34;96397.84;;;10.96;75.37
10135;BME280;5107;48.850;8.924;2022-11-15T07:41:20;96396.56;;;11.07;74.89
10135;BME280;5107;48.850;8.924;2022-11-15T07:44:05;96400.81;;;11.08;75.23
10135;BME280;5107;48.850;8.924;2022-11-15T07:46:52;96395.38;;;11.09;75.47
10135;BME280;5107;48.850;8.924;2022-11-15T07:49:38;96391.03;;;11.16;74.66
10135;BME280;5107;48.850;8.924;2022-11-15T07:52:23;96385.03;;;11.37;78.26
10135;BME280;5107;48.850;8.924;2022-11-15T07:55:09;96386.47;;;11.39;74.34
10135;BME280;5107;48.850;8.924;2022-11-15T07:58:00;96395.38;;;11.24;73.71
10135;BME280;5107;48.850;8.924;2022-11-15T08:00:47;96392.84;;;11.16;74.64
10135;BME280;5107;48.850;8.924;2022-11-15T08:03:34;96387.66;;;11.08;74.11
10135;BME280;5107;48.850;8.924;2022-11-15T08:06:19;96390.19;;;11.16;74.58
10135;BME280;5107;48.850;8.924;2022-11-15T08:09:05;96387.28;;;11.40;73.71
10135;BME280;5107;48.850;8.924;2022-11-15T08:11:50;96389.38;;;11.59;72.59
10135;BME280;5107;48.850;8.924;2022-11-15T08:14:36;96395.81;;;11.86;71.49
10135;BME280;5107;48.850;8.924;2022-11-15T08:17:22;96388.63;;;12.16;71.19
10135;BME280;5107;48.850;8.924;2022-11-15T08:20:10;96382.41;;;12.24;70.39
10135;BME280;5107;48.850;8.924;2022-11-15T08:22:56;96378.59;;;12.26;70.04
10135;BME280;5107;48.850;8.924;2022-11-15T08:25:42;96379.72;;;12.17;70.61
10135;BME280;5107;48.850;8.924;2022-11-15T08:28:28;96371.91;;;12.30;71.86
10135;BME280;5107;48.850;8.924;2022-11-15T08:31:15;96374.50;;;12.24;nan
10135;BME280;5107;48.850;8.924;2022-11-15T08:34:02;96367.72;;;12.36;70.27
10135;BME280;5107;48.850;8.924;2022-11-15T08:36:49;96370.31;;;12.29;70.00
10135;BME280;5107;48.850;8.924;2022-11-15T08:39:34;96358.06;;;12.22;70.59
10135;BME280;5107;48.850;8.924;2022-11-15T08:42:20;96363.25;;;12.15;70.90
10135;BME280;5107;48.850;8.924;2022-11-15T08:45:07;96356.59;;;12.19;71.42
10135;BME280;5107;48.850;8.924;2022-11-15T08:47:53;96350.00;;;12.08;71.08
10135;BME280;5107;48.850;8.924;2022-11-15T08:50:38;96355.72;;;12.12;71.02
10135;BME280;5107;48.850;8.924;2022-11-15T08:53:25;96351.00;;;12.07;70.92
10135;BME280;5107;48.850;8.924;2022-11-15T08:56:13;96346.41;;;12.16;71.58
10135;BME280;5107;48.850;8.924;2022-11-15T08:58:59;96347.94;;;12.25;71.39
10135;BME280;5107;48.850;8.924;2022-11-15T09:01:45;96348.28;;;12.22;71.27
10135;BME280;5107;48.850;8.924;2022-11-15T09:04:30;96347.00;;;12.11;71.87
10135;BME280;5107;48.850;8.924;2022-11-15T09:07:17;96346.72;;;12.06;71.51
10135;BME280;5107;48.850;8.924;2022-11-15T09:10:05;96348.19;;;12.09;72.64
10135;BME280;5107;48.850;8.924;2022-11-15T09:12:51;96345.78;;;12.14;72.27
10135;BME280;5107;48.850;8.924;2022-11-15T09:15:37;96350.94;;;12.22;72.36
10135;BME280;5107;48.850;8.924;2022-11-15T09:18:22;96335.63;;;12.11;71.28
10135;BME280;5107;48.850;8.924;2022-11-15T09:21:08;96342.41;;;12.20;72.40
10135;BME280;5107;48.850;8.924;2022-11-15T09:23:54;96341.44;;;12.49;71.78
10135;BME280;5107;48.850;8.924;2022-11-15T09:26:41;96339.06;;;12.54;70.12
10135;BME280;5107;48.850;8.924;2022-11-15T09:29:27;96334.44;;;12.63;69.79
10135;BME280;5107;48.850;8.924;2022-11-15T09:32:13;96336.31;;;12.69;70.01
10135;BME280;5107;48.850;8.924;2022-11-15T09:34:58;96334.53;;;12.76;69.26
10135;BME280;5107;48.850;8.924;2022-11-15T09:37:44;96326.44;;;12.77;68.74
10135;BME280;5107;48.850;8.924;2022-11-15T09:40:30;96324.63;;;12.84;69.31
10135;BME280;5107;48.850;8.924;2022-11-15T09:43:32;96325.16;;;12.73;68.74
10135;BME280;5107;48.850;8.924;2022-11-15T09:46:30;96324.75;;;12.70;68.69
10135;BME280;5107;48.850;8.924;2022-11-15T09:49:21;96325.16;;;12.73;69.51
10135;BME280;5107;48.850;8.924;2022-11-15T09:52:03;96314.75;;;12.65;69.23
10135;BME280;5107;48.850;8.924;2022-11-15T09:54:32;96318.97;;;12.60;69.22
10135;BME280;5107;48.850;8.924;2022-11-15T09:57:06;96319.34;;;12.57;70.04
10135;BME280;5107;48.850;8.924;2022-11-15T09:59:59;96319.75;;;12.53;70.04
10135;BME280;5107;48.850;8.924;2022-11-15T10:02:51;96311.59;;;12.48;70.01
10135;BME280;5107;48.850;8.924;2022-11-15T10:05:23;96317.88;;;12.47;70.28
10135;BME280;5107;48.850;8.924;2022-11-15T10:07:57;96308.34;;;12.46;70.26
10135;BME280;5107;48.850;8.924;2022-11-15T10:10:32;96313.22;;;12.49;70.75
10135;BME280;5107;48.850;8.924;2022-11-15T10:13:03;96304.06;;;12.45;70.75
10135;BME280;5107;48.850;8.924;2022-11-15T10:15:32;96302.63;;;12.43;70.80
10135;BME280;5107;48.850;8.924;2022-11-15T10:18:15;96302.44;;;12.44;70.92
10135;BME280;5107;48.850;8.924;2022-11-15T10:20:48;96297.34;;;12.43;71.08
10135;BME280;5107;48.850;8.924;2022-11-15T10:23:19;96306.06;;;12.43;71.32
10135;BME280;5107;48.850;8.924;2022-11-15T10:25:48;96292.50;;;12.46;71.66
10135;BME280;5107;48.850;8.924;2022-11-15T10:28:28;96292.69;;;12.45;70.96
10135;BME280;5107;48.850;8.924;2022-11-15T10:30:59;96288.16;;;12.39;71.49
10135;BME280;5107;48.850;8.924;2022-11-15T10:33:35;96283.91;;;12.38;71.84
10135;BME280;5107;48.850;8.924;2022-11-15T10:36:17;96282.09;;;12.38;71.89
10135;BME280;5107;48.850;8.924;2022-11-15T10:39:11;96276.00;;;12.38;72.58
10135;BME280;5107;48.850;8.924;2022-11-15T10:41:40;96276.19;;;12.36;72.52
10135;BME280;5107;48.850;8.924;2022-11-15T10:44:27;96270.28;;;12.34;72.50
10135;BME280;5107;48.850;8.924;2022-11-15T10:47:25;96271.28;;;12.33;72.34
10135;BME280;5107;48.850;8.924;2022-11-15T10:50:05;96265.63;;;12.36;72.49
10135;BME280;5107;48.850;8.924;2022-11-15T10:52:35;96258.34;;;12.38;72.65
10135;BME280;5107;48.850;8.924;2022-11-15T10:55:20;96258.75;;;12.42;73.08
10135;BME280;5107;48.850;8.924;2022-11-15T10:57:51;96264.03;;;12.42;72.27
10135;BME280;5107;48.850;8.924;2022-11-15T11:00:31;96257.94;;;12.41;72.70
10135;BME280;5107;48.850;8.924;2022-11-15T11:03:02;96253.09;;;12.45;72.85
10135;BME280;5107;48.850;8.924;2022-11-15T11:05:31;96248.66;;;12.45;72.76
10135;BME280;5107;48.850;8.924;2022-11-15T11:08:02;96245.78;;;12.47;73.44
10135;BME280;5107;48.850;8.924;2022-11-15T11:10:30;96249.69;;;12.51;73.24
10135;BME280;5107;48.850;8.924;2022-11-15T11:13:13;96259.25;;;12.52;73.29
10135;BME280;5107;48.850;8.924;2022-11-15T11:15:43;96254.78;;;12.52;73.39
10135;BME280;5107;48.850;8.924;2022-11-15T11:18:19;96244.44;;;12.58;73.32
10135;BME280;5107;48.850;8.924;2022-11-15T11:21:00;96241.44;;;12.61;73.27
10135;BME280;5107;48.850;8.924;2022-11-15T11:23:44;96238.19;;;12.65;73.73
10135;BME280;5107;48.850;8.924;2022-11-15T11:26:39;96227.69;;;12.72;73.31
10135;BME280;5107;48.850;8.924;2022-11-15T11:29:22;96219.97;;;12.70;73.11
10135;BME280;5107;48.850;8.924;2022-11-15T11:31:59;96215.94;;;12.81;73.58
10135;BME280;5107;48.850;8.924;2022-11-15T11:34:41;96216.38;;;12.84;72.86
10135;BME280;5107;48.850;8.924;2022-11-15T11:37:21;96203.81;;;12.93;72.29
10135;BME280;5107;48.850;8.924;2022-11-15T11:40:05;96202.44;;;12.97;72.41
10135;BME280;5107;48.850;8.924;2022-11-15T11:42:44;96199.00;;;13.03;71.67
10135;BME280;5107;48.850;8.924;2022-11-15T11:45:19;96203.28;;;13.11;71.74
10135;BME280;5107;48.850;8.924;2022-11-15T11:47:57;96198.25;;;13.16;70.91
10135;BME280;5107;48.850;8.924;2022-11-15T11:50:28;96200.31;;;13.20;71.03
10135;BME280;5107;48.850;8.924;2022-11-15T11:52:58;96197.88;;;13.25;70.79
10135;BME280;5107;48.850;8.924;2022-11-15T11:55:33;96200.75;;;13.31;70.84
10135;BME280;5107;48.850;8.924;2022-11-15T11:58:09;96192.22;;;13.35;71.07
10135;BME280;5107;48.850;8.924;2022-11-15T12:00:43;96186.72;;;13.37;70.35
10135;BME280;5107;48.850;8.924;2022-11-15T12:03:25;96182.84;;;13.39;70.41
10135;BME280;5107;48.850;8.924;2022-11-15T12:05:59;96174.53;;;13.42;70.42
10135;BME280;5107;48.850;8.924;2022-11-15T12:08:35;96166.22;;;13.45;70.73
10135;BME280;5107;48.850;8.924;2022-11-15T12:11:13;96172.31;;;13.46;70.76
10135;BME280;5107;48.850;8.924;2022-11-15T12:13:43;96163.75;;;13.44;70.41
10135;BME280;5107;48.850;8.924;2022-11-15T12:16:14;96167.00;;;13.39;70.75
10135;BME280;5107;48.850;8.924;2022-11-15T12:18:48;96158.06;;;13.40;70.96
10135;BME280;5107;48.850;8.924;2022-11-15T12:21:24;96156.41;;;13.39;71.44
10135;BME280;5107;48.850;8.924;2022-11-15T12:24:01;96160.09;;;13.38;70.78
10135;BME280;5107;48.850;8.924;2022-11-15T12:26:35;96163.56;;;13.39;71.01
10135;BME280;5107;48.850;8.924;2022-11-15T12:29:10;96156.66;;;13.38;70.94
10135;BME280;5107;48.850;8.924;2022-11-15T12:31:41;96160.91;;;13.39;71.35
10135;BME280;5107;48.850;8.924;2022-11-15T12:34:39;96152.75;;;13.40;71.00
10135;BME280;5107;48.850;8.924;2022-11-15T12:40:29;96149.94;;;13.42;71.04
10135;BME280;5107;48.850;8.924;2022-11-15T12:46:04;96148.91;;;13.49;71.15
10135;BME280;5107;48.850;8.924;2022-11-15T12:48:57;96147.91;;;13.50;71.17
10135;BME280;5107;48.850;8.924;2022-11-15T12:52:06;96143.03;;;13.54;70.78
10135;BME280;5107;48.850;8.924;2022-11-15T12:55:08;96139.16;;;13.56;70.90
10135;BME280;5107;48.850;8.924;2022-11-15T12:57:52;96133.28;;;13.61;71.02
10135;BME280;5107;48.850;8.924;2022-11-15T13:00:43;96134.72;;;13.63;70.43
10135;BME280;5107;48.850;8.924;2022-11-15T13:03:28;96123.72;;;13.66;70.49
10135;BME280;5107;48.850;8.924;2022-11-15T13:08:58;96114.97;;;13.79;70.67
10135;BME280;5107;48.850;8.924;2022-11-15T13:11:51;96113.53;;;13.77;71.18
10135;BME280;5107;48.850;8.924;2022-11-15T13:14:44;96106.84;;;13.81;71.63
10135;BME280;5107;48.850;8.924;2022-11-15T13:17:31;96093.81;;;13.79;71.74
10135;BME280;5107;48.850;8.924;2022-11-15T13:20:22;96099.72;;;13.75;72.90
10135;BME280;5107;48.850;8.924;2022-11-15T13:22:52;96096.06;;;13.69;73.27
10135;BME280;5107;48.850;8.924;2022-11-15T13:28:38;96080.00;;;13.71;73.32
10135;BME280;5107;48.850;8.924;2022-11-15T13:31:30;96082.81;;;13.76;72.81
10135;BME280;5107;48.850;8.924;2022-11-15T13:34:12;96082.03;;;13.68;73.06
10135;BME280;5107;48.850;8.924;2022-11-15T13:36:41;96072.47;;;13.81;71.14
10135;BME280;5107;48.850;8.924;2022-11-15T13:39:26;96076.31;;;13.85;70.79
10135;BME280;5107;48.850;8.924;2022-11-15T13:41:54;96071.03;;;13.65;72.25
10135;BME280;5107;48.850;8.924;2022-11-15T13:44:23;96068.59;;;13.70;71.59
10135;BME280;5107;48.850;8.924;2022-11-15T13:47:06;96062.91;;;13.40;72.72
10135;BME280;5107;48.850;8.924;2022-11-15T13:49:39;96063.50;;;13.22;73.00
10135;BME280;5107;48.850;8.924;2022-11-15T13:52:10;96058.63;;;13.13;74.53
10135;BME280;5107;48.850;8.924;2022-11-15T13:54:43;96061.66;;;13.03;74.72
10135;BME280;5107;48.850;8.924;2022-11-15T13:57:17;96059.19;;;13.02;74.16
10135;BME280;5107;48.850;8.924;2022-11-15T13:59:49;96045.19;;;13.01;74.61
10135;BME280;5107;48.850;8.924;2022-11-15T14:02:26;96051.47;;;12.93;73.82
10135;BME280;5107;48.850;8.924;2022-11-15T14:04:56;96044.13;;;12.89;73.56
10135;BME280;5107;48.850;8.924;2022-11-15T14:07:26;96038.06;;;12.88;74.02
10135;BME280;5107;48.850;8.924;2022-11-15T14:09:54;96042.09;;;12.84;74.88
10135;BME280;5107;48.850;8.924;2022-11-15T14:12:26;96039.47;;;12.84;74.00
10135;BME280;5107;48.850;8.924;2022-11-15T14:14:55;96033.56;;;12.82;74.03
10135;BME280;5107;48.850;8.924;2022-11-15T14:17:37;96032.75;;;12.82;73.97
10135;BME280;5107;48.850;8.924;2022-11-15T14:20:38;96032.16;;;12.86;73.85
10135;BME280;5107;48.850;8.924;2022-11-15T14:23:20;96027.06;;;12.85;74.10
10135;BME280;5107;48.850;8.924;2022-11-15T14:25:53;96020.78;;;12.86;74.07
10135;BME280;5107;48.850;8.924;2022-11-15T14:28:32;96022.81;;;12.84;74.58
10135;BME280;5107;48.850;8.924;2022-11-15T14:31:06;96013.50;;;12.88;74.63
10135;BME280;5107;48.850;8.924;2022-11-15T14:33:39;96006.78;;;12.85;74.62
10135;BME280;5107;48.850;8.924;2022-11-15T14:36:12;96007.59;;;12.86;75.11
10135;BME280;5107;48.850;8.924;2022-11-15T14:38:40;95999.44;;;12.81;75.30
10135;BME280;5107;48.850;8.924;2022-11-15T14:41:19;96004.94;;;12.79;75.52
10135;BME280;5107;48.850;8.924;2022-11-15T14:43:47;95984.22;;;12.76;75.64
10135;BME280;5107;48.850;8.924;2022-11-15T14:46:14;95997.00;;;12.73;75.82
10135;BME280;5107;48.850;8.924;2022-11-15T14:48:43;95981.38;;;12.71;76.39
10135;BME280;5107;48.850;8.924;2022-11-15T14:51:13;95981.75;;;12.68;76.50
10135;BME280;5107;48.850;8.924;2022-11-15T14:53:40;95984.59;;;12.67;76.81
10135;BME280;5107;48.850;8.924;2022-11-15T14:56:08;95978.31;;;12.68;76.61
10135;BME280;5107;48.850;8.924;2022-11-15T14:58:35;95976.69;;;12.67;76.38
10135;BME280;5107;48.850;8.924;2022-11-15T15:01:09;95967.13;;;12.66;76.31
10135;BME280;5107;48.850;8.924;2022-11-15T15:03:37;95968.56;;;12.68;76.23
10135;BME280;5107;48.850;8.924;2022-11-15T15:06:06;95971.59;;;12.65;76.21